Time;durP1;ratioP1;P1;durP2;ratioP2;P2;SDS_P1;SDS_P2;PMS_P1;PMS_P2;Temp;Humidity;BMP_temperature;BMP_pressure;BME280_temperature;BME280_humidity;BME280_pressure;Samples;Min_cycle;Max_cycle;Signal;HPM_P1;HPM_P2
2024/02/28 00:00:28;;;;;;;231.82;214.45;;;2.00;99.90;;;;;;5033917;28;20201;-74
2024/02/28 00:02:54;;;;;;;225.43;208.57;;;2.10;99.90;;;;;;5033476;28;20570;-74
2024/02/28 00:05:19;;;;;;;247.10;230.23;;;2.10;99.90;;;;;;5034026;28;20173;-74
2024/02/28 00:07:46;;;;;;;257.77;240.67;;;2.10;99.90;;;;;;5034182;28;20176;-74
2024/02/28 00:10:13;;;;;;;211.82;195.55;;;2.00;99.90;;;;;;5033801;28;20738;-73
2024/02/28 00:12:39;;;;;;;185.20;170.13;;;1.90;99.90;;;;;;5033675;28;20550;-73
2024/02/28 00:15:10;;;;;;;151.57;137.57;;;1.80;99.90;;;;;;5033815;28;20164;-73
2024/02/28 00:17:38;;;;;;;139.63;125.57;;;1.80;99.90;;;;;;5033962;28;20395;-73
2024/02/28 00:20:04;;;;;;;141.07;126.40;;;1.80;99.90;;;;;;5033671;28;20211;-74
2024/02/28 00:22:29;;;;;;;152.83;138.63;;;1.90;99.90;;;;;;5015753;28;20176;-74
2024/02/28 00:24:55;;;;;;;141.20;127.07;;;1.90;99.90;;;;;;5033669;28;20891;-74
2024/02/28 00:27:21;;;;;;;153.13;139.07;;;2.00;99.90;;;;;;5033654;28;20169;-74
2024/02/28 00:29:46;;;;;;;163.20;149.00;;;2.10;99.90;;;;;;5033492;28;20184;-74
2024/02/28 00:32:12;;;;;;;178.67;162.47;;;2.20;99.90;;;;;;5033300;28;20161;-74
2024/02/28 00:34:37;;;;;;;181.23;165.30;;;4.20;99.90;;;;;;5033493;28;20247;-74
2024/02/28 00:37:03;;;;;;;179.10;164.57;;;2.20;99.90;;;;;;5033473;28;20168;-74
2024/02/28 00:39:29;;;;;;;214.07;198.33;;;2.30;99.90;;;;;;5033420;28;20259;-74
2024/02/28 00:41:55;;;;;;;208.57;192.57;;;2.30;99.90;;;;;;5032995;28;20656;-74
2024/02/28 00:44:20;;;;;;;218.80;202.90;;;2.40;99.90;;;;;;5033299;28;20234;-74
2024/02/28 00:46:46;;;;;;;245.60;228.00;;;2.40;99.90;;;;;;5033191;28;20515;-74
2024/02/28 00:49:11;;;;;;;228.03;211.53;;;2.50;99.90;;;;;;5033080;28;20196;-74
2024/02/28 00:51:37;;;;;;;253.57;236.57;;;2.50;99.90;;;;;;5032945;28;20227;-74
2024/02/28 00:54:03;;;;;;;232.73;216.07;;;2.50;99.90;;;;;;5033158;28;20218;-74
2024/02/28 00:56:28;;;;;;;270.53;252.63;;;2.50;99.90;;;;;;5033159;28;20643;-74
2024/02/28 00:58:54;;;;;;;258.63;241.77;;;2.50;99.90;;;;;;5032980;28;20165;-74
2024/02/28 01:01:19;;;;;;;263.10;245.70;;;2.40;99.90;;;;;;5032745;28;20171;-75
2024/02/28 01:03:45;;;;;;;249.10;232.17;;;2.40;99.90;;;;;;5032643;28;20231;-75
2024/02/28 01:06:11;;;;;;;248.40;230.73;;;2.30;99.90;;;;;;5032938;28;20215;-74
2024/02/28 01:08:36;;;;;;;268.10;250.63;;;2.40;99.90;;;;;;5032899;28;20183;-75
2024/02/28 01:11:02;;;;;;;276.50;258.50;;;2.30;99.90;;;;;;5032685;28;20513;-74
2024/02/28 01:13:28;;;;;;;250.73;233.73;;;2.30;99.90;;;;;;5031559;28;20599;-74
2024/02/28 01:15:54;;;;;;;231.73;215.13;;;2.40;99.90;;;;;;5032778;28;20255;-75
2024/02/28 01:18:19;;;;;;;265.27;248.00;;;2.40;99.90;;;;;;5032833;28;20265;-75
2024/02/28 01:20:45;;;;;;;229.37;212.13;;;2.50;99.90;;;;;;5032587;28;20463;-75
2024/02/28 01:23:10;;;;;;;234.60;218.17;;;2.50;99.90;;;;;;5032366;28;20173;-75
2024/02/28 01:25:36;;;;;;;237.43;220.53;;;2.60;99.90;;;;;;5032623;28;20168;-77
2024/02/28 01:28:03;;;;;;;247.17;230.17;;;2.50;99.90;;;;;;5032540;28;20180;-75
2024/02/28 01:30:29;;;;;;;259.65;242.55;;;2.50;99.90;;;;;;5032255;28;20222;-76
2024/02/28 01:32:54;;;;;;;233.50;217.53;;;2.40;99.90;;;;;;5032160;28;20176;-77
2024/02/28 01:35:20;;;;;;;236.93;220.70;;;2.30;99.90;;;;;;5032392;28;20538;-76
2024/02/28 01:37:46;;;;;;;256.67;239.87;;;2.20;99.90;;;;;;5032397;28;20164;-75
2024/02/28 01:40:12;;;;;;;359.93;339.23;;;2.20;99.90;;;;;;5032217;28;20188;-76
2024/02/28 01:42:37;;;;;;;250.27;234.02;;;2.20;99.90;;;;;;5032002;28;20264;-77
2024/02/28 01:45:03;;;;;;;277.20;259.97;;;3.50;99.90;;;;;;5032217;28;20256;-76
2024/02/28 01:47:30;;;;;;;292.43;274.47;;;2.10;99.90;;;;;;5032156;28;20165;-77
2024/02/28 01:49:56;;;;;;;248.05;231.13;;;2.20;99.90;;;;;;5031934;28;20462;-76
2024/02/28 01:52:22;;;;;;;303.90;285.33;;;2.10;99.90;;;;;;5031834;28;20721;-76
2024/02/28 01:54:48;;;;;;;271.75;253.82;;;;;;;;;;5032125;28;20907;-77
2024/02/28 01:57:14;;;;;;;295.27;276.03;;;2.30;99.90;;;;;;5032110;28;20183;-75
2024/02/28 01:59:40;;;;;;;263.53;245.63;;;2.30;99.90;;;;;;5032061;28;20856;-74
2024/02/28 02:02:06;;;;;;;304.27;285.77;;;2.70;99.90;;;;;;5031774;28;20411;-75
2024/02/28 02:04:31;;;;;;;250.00;232.53;;;2.50;99.90;;;;;;5032019;28;20403;-75
2024/02/28 02:06:59;;;;;;;317.27;296.83;;;2.50;99.90;;;;;;5032109;28;20176;-75
2024/02/28 02:09:26;;;;;;;298.02;279.95;;;2.60;99.90;;;;;;5031969;28;20184;-74
2024/02/28 02:11:51;;;;;;;307.58;288.98;;;2.50;99.90;;;;;;5031548;28;20215;-75
2024/02/28 02:14:17;;;;;;;294.53;276.80;;;2.50;99.90;;;;;;5031800;28;20544;-74
2024/02/28 02:16:43;;;;;;;263.07;245.57;;;2.40;99.90;;;;;;5031928;28;20407;-74
2024/02/28 02:19:09;;;;;;;213.37;196.70;;;2.70;99.90;;;;;;5031931;28;20172;-75
2024/02/28 02:21:40;;;;;;;211.32;195.38;;;2.40;99.90;;;;;;5031682;28;20260;-74
2024/02/28 02:24:06;;;;;;;204.75;189.07;;;2.40;99.90;;;;;;5035092;28;20195;-75
2024/02/28 02:26:31;;;;;;;255.67;237.30;;;2.40;99.90;;;;;;5040455;28;20560;-75
2024/02/28 02:28:57;;;;;;;205.47;188.40;;;2.40;99.90;;;;;;5038994;28;20222;-74
2024/02/28 02:31:23;;;;;;;236.67;217.93;;;2.50;99.90;;;;;;5038252;28;20573;-75
2024/02/28 02:33:48;;;;;;;260.50;242.93;;;2.60;99.90;;;;;;5038637;28;20164;-74
2024/02/28 02:36:14;;;;;;;206.00;189.37;;;2.50;99.90;;;;;;5038415;28;20242;-75
2024/02/28 02:38:39;;;;;;;202.67;186.57;;;2.60;99.90;;;;;;5038309;28;20173;-75
2024/02/28 02:41:05;;;;;;;220.07;203.20;;;2.60;99.90;;;;;;5038172;28;20201;-75
2024/02/28 02:43:30;;;;;;;204.83;188.93;;;2.50;99.90;;;;;;5037933;28;20169;-76
2024/02/28 02:45:56;;;;;;;224.60;207.53;;;2.60;99.90;;;;;;5038201;28;20171;-76
2024/02/28 02:48:21;;;;;;;197.10;180.13;;;2.50;99.90;;;;;;5038146;28;20542;-76
2024/02/28 02:50:47;;;;;;;217.23;201.53;;;2.80;99.90;;;;;;5037877;28;20207;-76
2024/02/28 02:53:13;;;;;;;230.83;213.87;;;2.90;99.90;;;;;;5037819;28;20247;-76
2024/02/28 02:55:38;;;;;;;225.97;208.73;;;2.90;99.90;;;;;;5038090;28;20616;-76
2024/02/28 02:58:04;;;;;;;239.60;221.83;;;3.00;99.90;;;;;;5038068;28;20490;-76
2024/02/28 03:00:30;;;;;;;226.20;209.70;;;2.90;99.90;;;;;;5037951;28;20188;-76
2024/02/28 03:02:56;;;;;;;238.47;220.60;;;2.80;99.90;;;;;;5037721;28;20183;-75
2024/02/28 03:05:21;;;;;;;255.05;237.60;;;2.70;99.90;;;;;;5038002;28;20175;-75
2024/02/28 03:07:47;;;;;;;259.30;241.80;;;2.70;99.90;;;;;;5037970;28;20639;-76
2024/02/28 03:10:13;;;;;;;231.57;215.60;;;2.60;99.90;;;;;;5037728;28;20307;-76
2024/02/28 03:12:38;;;;;;;264.73;247.77;;;2.40;99.90;;;;;;5037621;28;20164;-76
2024/02/28 03:15:05;;;;;;;237.40;221.50;;;2.30;99.90;;;;;;5037907;28;20164;-76
2024/02/28 03:17:30;;;;;;;266.85;251.05;;;2.30;99.90;;;;;;5037859;28;20167;-74
2024/02/28 03:19:56;;;;;;;216.30;200.73;;;2.40;99.90;;;;;;5037802;28;20271;-75
2024/02/28 03:22:22;;;;;;;225.30;210.33;;;;;;;;;;5037623;28;20195;-75
2024/02/28 03:24:48;;;;;;;236.27;220.70;;;2.10;99.90;;;;;;5037768;28;20176;-74
2024/02/28 03:27:14;;;;;;;219.48;203.77;;;2.10;99.90;;;;;;5037821;28;20164;-75
2024/02/28 03:29:39;;;;;;;230.00;214.43;;;2.20;99.90;;;;;;5037604;28;20193;-74
2024/02/28 03:32:05;;;;;;;239.83;221.33;;;2.30;99.90;;;;;;5037441;28;20474;-74
2024/02/28 03:34:31;;;;;;;254.10;236.60;;;2.30;99.90;;;;;;5037797;28;20171;-74
2024/02/28 03:36:57;;;;;;;257.30;236.60;;;2.30;99.90;;;;;;5034419;28;20487;-74
2024/02/28 03:39:23;;;;;;;271.80;252.47;;;2.40;99.90;;;;;;5034393;28;20184;-73
2024/02/28 03:41:48;;;;;;;287.93;264.07;;;2.40;99.90;;;;;;5034305;28;20415;-73
2024/02/28 03:44:14;;;;;;;269.13;243.30;;;2.40;99.90;;;;;;5034502;28;20631;-73
2024/02/28 03:46:39;;;;;;;246.23;188.50;;;2.40;99.90;;;;;;5034488;28;20168;-73
2024/02/28 03:49:05;;;;;;;226.80;203.30;;;2.90;99.90;;;;;;5034286;28;20644;-74
2024/02/28 03:51:30;;;;;;;253.60;221.60;;;2.40;99.90;;;;;;5034072;28;20196;-74
2024/02/28 03:53:56;;;;;;;345.00;246.97;;;2.50;99.90;;;;;;5034504;28;20219;-75
2024/02/28 03:56:24;;;;;;;303.67;190.23;;;2.50;99.90;;;;;;5034269;28;20180;-74
2024/02/28 03:58:50;;;;;;;298.63;208.68;;;2.40;99.90;;;;;;5034229;28;20187;-74
2024/02/28 04:01:16;;;;;;;334.60;213.27;;;2.40;99.90;;;;;;5034070;28;20200;-75
2024/02/28 04:03:41;;;;;;;273.03;209.90;;;2.40;99.90;;;;;;5033937;28;20419;-74
2024/02/28 04:06:07;;;;;;;268.17;208.33;;;2.50;99.90;;;;;;5034155;28;20660;-74
2024/02/28 04:08:33;;;;;;;281.50;205.83;;;;;;;;;;5034004;28;20199;-75
2024/02/28 04:10:58;;;;;;;409.40;212.13;;;2.60;99.90;;;;;;5033861;28;20697;-74
2024/02/28 04:13:24;;;;;;;337.60;226.97;;;2.60;99.90;;;;;;5033653;28;20463;-74
2024/02/28 04:15:49;;;;;;;327.77;235.77;;;2.70;99.90;;;;;;5033858;28;20244;-74
2024/02/28 04:18:15;;;;;;;365.17;255.23;;;2.70;99.90;;;;;;5033880;28;20169;-74
2024/02/28 04:20:41;;;;;;;281.03;252.23;;;;;;;;;;5033787;28;20605;-75
2024/02/28 04:23:06;;;;;;;263.33;232.23;;;2.80;99.90;;;;;;5033493;28;20172;-75
2024/02/28 04:25:32;;;;;;;296.23;268.10;;;2.80;99.90;;;;;;5033786;28;20435;-75
2024/02/28 04:27:58;;;;;;;312.17;283.63;;;3.40;99.90;;;;;;5033692;28;20321;-74
2024/02/28 04:30:23;;;;;;;305.23;277.07;;;2.90;99.90;;;;;;5033476;28;20211;-74
2024/02/28 04:32:49;;;;;;;363.90;335.57;;;3.00;99.90;;;;;;5033382;28;20172;-73
2024/02/28 04:35:18;;;;;;;310.92;286.50;;;3.10;99.90;;;;;;5033564;28;20176;-75
2024/02/28 04:37:45;;;;;;;333.88;307.50;;;3.10;99.90;;;;;;5033528;28;20175;-74
2024/02/28 04:40:11;;;;;;;342.75;313.77;;;3.20;99.90;;;;;;5033462;28;20325;-74
2024/02/28 04:42:37;;;;;;;280.85;257.27;;;3.20;99.90;;;;;;5033154;28;20562;-74
2024/02/28 04:45:03;;;;;;;280.33;253.13;;;3.10;99.90;;;;;;5033320;28;20180;-75
2024/02/28 04:47:29;;;;;;;279.83;251.95;;;3.20;99.90;;;;;;5033077;28;20640;-74
2024/02/28 04:49:55;;;;;;;304.93;273.43;;;3.10;99.90;;;;;;5032968;28;20334;-75
2024/02/28 04:52:20;;;;;;;290.93;260.33;;;3.20;99.90;;;;;;5032970;28;20160;-74
2024/02/28 04:54:46;;;;;;;319.30;293.23;;;3.20;99.90;;;;;;5033421;28;20176;-75
2024/02/28 04:57:11;;;;;;;333.27;305.77;;;3.30;99.90;;;;;;5033281;28;20575;-75
2024/02/28 04:59:37;;;;;;;310.63;284.33;;;3.30;99.90;;;;;;5032957;28;20290;-75
2024/02/28 05:02:03;;;;;;;317.83;292.50;;;3.40;99.90;;;;;;5032906;28;20187;-74
2024/02/28 05:04:29;;;;;;;402.80;380.17;;;3.30;99.90;;;;;;5033061;28;20183;-75
2024/02/28 05:06:54;;;;;;;313.70;293.23;;;3.30;99.90;;;;;;5032923;28;20577;-75
2024/02/28 05:09:20;;;;;;;445.87;420.47;;;3.30;99.90;;;;;;5032773;28;20195;-74
2024/02/28 05:11:45;;;;;;;372.60;351.37;;;3.30;99.90;;;;;;5032504;28;20247;-75
2024/02/28 05:14:11;;;;;;;327.03;307.37;;;3.30;99.90;;;;;;5032690;28;20515;-75
2024/02/28 05:16:36;;;;;;;331.50;311.80;;;3.20;99.90;;;;;;5032675;28;20173;-75
2024/02/28 05:19:04;;;;;;;338.87;318.87;;;3.00;99.90;;;;;;5032603;28;20172;-74
2024/02/28 05:21:29;;;;;;;315.30;296.38;;;3.10;99.90;;;;;;5032308;28;20211;-74
2024/02/28 05:23:55;;;;;;;414.13;389.97;;;3.00;99.90;;;;;;5032546;28;20265;-74
2024/02/28 05:26:20;;;;;;;283.03;265.20;;;3.00;99.90;;;;;;5032569;28;20294;-74
2024/02/28 05:28:46;;;;;;;264.37;247.47;;;2.90;99.90;;;;;;5032519;28;20172;-74
2024/02/28 05:31:23;;;;;;;224.27;208.37;;;2.90;99.90;;;;;;5032249;28;20484;-74
2024/02/28 05:33:51;;;;;;;246.50;229.30;;;2.90;99.90;;;;;;5032538;28;20640;-74
2024/02/28 05:36:18;;;;;;;375.25;352.90;;;2.90;99.90;;;;;;5032402;28;20175;-74
2024/02/28 05:38:44;;;;;;;289.45;270.40;;;3.00;99.90;;;;;;5032284;28;20190;-75
2024/02/28 05:41:09;;;;;;;262.37;243.67;;;2.90;99.90;;;;;;5032283;28;20204;-75
2024/02/28 05:43:38;;;;;;;211.93;195.00;;;2.90;99.90;;;;;;5031926;28;20164;-74
2024/02/28 05:46:03;;;;;;;239.85;223.27;;;3.00;99.90;;;;;;5032255;28;20168;-74
2024/02/28 05:48:29;;;;;;;234.23;217.17;;;3.00;99.90;;;;;;5032153;28;20528;-74
2024/02/28 05:50:54;;;;;;;219.60;203.23;;;3.00;99.90;;;;;;5031964;28;20212;-75
2024/02/28 05:53:20;;;;;;;240.43;222.67;;;3.00;99.90;;;;;;5032100;28;20168;-76
2024/02/28 05:55:46;;;;;;;236.80;219.20;;;3.00;99.90;;;;;;5032170;28;20558;-74
2024/02/28 05:58:13;;;;;;;227.00;209.23;;;3.00;99.90;;;;;;5032035;28;20399;-75
2024/02/28 06:00:38;;;;;;;297.13;277.67;;;3.00;99.90;;;;;;5031397;28;20188;-75
2024/02/28 06:03:04;;;;;;;255.37;237.20;;;2.90;99.90;;;;;;5031658;28;20230;-75
2024/02/28 06:05:30;;;;;;;229.43;213.93;;;2.90;99.90;;;;;;5031994;28;20175;-70
2024/02/28 06:07:55;;;;;;;223.73;206.87;;;3.00;99.90;;;;;;5031886;28;20486;-69
2024/02/28 06:10:21;;;;;;;195.10;179.63;;;2.90;99.90;;;;;;5031728;28;20207;-70
2024/02/28 06:12:47;;;;;;;297.50;277.23;;;2.90;99.90;;;;;;5031585;28;20318;-70
2024/02/28 06:15:12;;;;;;;194.33;178.03;;;2.70;99.90;;;;;;5031742;28;20164;-69
2024/02/28 06:17:39;;;;;;;171.30;155.77;;;2.60;99.90;;;;;;5031672;28;20172;-69
2024/02/28 06:20:06;;;;;;;156.50;142.13;;;2.60;99.90;;;;;;5031696;28;20245;-70
2024/02/28 06:22:31;;;;;;;142.63;128.82;;;2.60;99.90;;;;;;5031589;28;20189;-69
2024/02/28 06:24:57;;;;;;;572.80;540.10;;;2.60;99.90;;;;;;5031844;28;20180;-70
2024/02/28 06:27:23;;;;;;;765.03;718.53;;;2.50;99.90;;;;;;5031738;28;20176;-69
2024/02/28 06:29:49;;;;;;;166.13;150.77;;;2.50;99.90;;;;;;5031567;28;20855;-69
2024/02/28 06:32:14;;;;;;;252.37;234.17;;;2.40;99.90;;;;;;5031394;28;20242;-70
2024/02/28 06:34:41;;;;;;;156.57;142.20;;;2.40;99.90;;;;;;5031657;28;20486;-70
2024/02/28 06:37:07;;;;;;;180.38;165.35;;;2.40;99.90;;;;;;5031523;28;20204;-72
2024/02/28 06:39:33;;;;;;;201.20;185.47;;;;;;;;;;5031547;28;20227;-69
2024/02/28 06:41:59;;;;;;;171.37;156.57;;;2.30;99.90;;;;;;5031297;28;20542;-72
2024/02/28 06:44:24;;;;;;;166.07;151.87;;;2.30;99.90;;;;;;5031475;28;20411;-71
2024/02/28 06:46:50;;;;;;;168.47;154.20;;;2.30;99.90;;;;;;5031409;28;20172;-72
2024/02/28 06:49:15;;;;;;;127.63;113.87;;;2.30;99.90;;;;;;5031297;28;20757;-71
2024/02/28 06:51:43;;;;;;;123.63;111.40;;;2.20;99.90;;;;;;5031307;28;20681;-72
2024/02/28 06:54:10;;;;;;;181.98;166.20;;;2.30;99.90;;;;;;5031229;28;20180;-72
2024/02/28 06:56:36;;;;;;;252.00;235.50;;;2.40;99.90;;;;;;5031443;28;20659;-72
2024/02/28 06:59:03;;;;;;;604.33;571.70;;;2.70;99.90;;;;;;5031403;28;20169;-71
2024/02/28 07:01:29;;;;;;;161.18;146.27;;;2.60;99.90;;;;;;5031098;28;20172;-72
2024/02/28 07:03:55;;;;;;;176.07;160.97;;;2.60;99.90;;;;;;5031589;28;20168;-72
2024/02/28 07:06:20;;;;;;;176.53;161.77;;;2.60;99.90;;;;;;5031313;28;20176;-72
2024/02/28 07:08:46;;;;;;;192.50;177.07;;;2.70;99.90;;;;;;5031397;28;20593;-71
2024/02/28 07:11:15;;;;;;;169.87;154.63;;;2.70;99.90;;;;;;5031719;28;20588;-72
2024/02/28 07:13:41;;;;;;;200.85;184.50;;;2.80;99.90;;;;;;5034722;28;20171;-72
2024/02/28 07:16:07;;;;;;;472.83;443.33;;;2.80;99.90;;;;;;5034872;28;20255;-72
2024/02/28 07:18:33;;;;;;;180.93;164.97;;;2.80;99.90;;;;;;5034963;28;20413;-71
2024/02/28 07:20:59;;;;;;;453.40;424.65;;;2.80;99.90;;;;;;5034822;28;20189;-72
2024/02/28 07:23:25;;;;;;;171.87;155.93;;;2.80;99.90;;;;;;5034660;28;20181;-71
2024/02/28 07:25:50;;;;;;;179.87;164.30;;;2.70;99.90;;;;;;5034826;28;20590;-71
2024/02/28 07:28:16;;;;;;;168.47;153.70;;;2.70;99.90;;;;;;5034839;28;20814;-72
2024/02/28 07:30:43;;;;;;;183.93;168.80;;;2.70;99.90;;;;;;5034591;28;20369;-72
2024/02/28 07:33:09;;;;;;;184.50;168.68;;;2.80;99.90;;;;;;5034535;28;20164;-71
2024/02/28 07:35:47;;;;;;;372.43;348.60;;;2.80;99.90;;;;;;5034693;28;20549;-71
2024/02/28 07:38:13;;;;;;;244.60;227.20;;;2.90;99.90;;;;;;5034818;28;20227;-71
2024/02/28 07:40:38;;;;;;;528.83;498.63;;;2.90;99.90;;;;;;5034442;28;20191;-71
2024/02/28 07:43:04;;;;;;;214.00;197.40;;;2.80;99.90;;;;;;5034260;28;20172;-71
2024/02/28 07:45:30;;;;;;;286.70;267.47;;;2.80;99.90;;;;;;5034474;28;20243;-72
2024/02/28 07:47:55;;;;;;;227.67;211.37;;;2.90;99.90;;;;;;5034463;28;20170;-72
2024/02/28 07:50:21;;;;;;;333.97;312.47;;;2.90;99.90;;;;;;5034148;28;20253;-71
2024/02/28 07:52:46;;;;;;;265.00;247.47;;;3.00;99.90;;;;;;5034149;28;20535;-72
2024/02/28 07:55:12;;;;;;;272.90;255.20;;;3.00;99.90;;;;;;5034301;28;20880;-72
2024/02/28 07:57:38;;;;;;;213.20;197.57;;;3.10;99.90;;;;;;5034219;28;20168;-72
2024/02/28 08:00:04;;;;;;;211.53;195.67;;;3.20;99.90;;;;;;5034195;28;20180;-70
2024/02/28 08:02:30;;;;;;;323.02;301.35;;;3.20;99.90;;;;;;5033896;28;20286;-69
2024/02/28 08:04:56;;;;;;;163.07;148.33;;;3.30;99.90;;;;;;5034235;28;20741;-72
2024/02/28 08:07:22;;;;;;;177.20;162.13;;;3.30;99.90;;;;;;5034144;28;20168;-71
2024/02/28 08:09:47;;;;;;;168.83;154.90;;;3.30;99.90;;;;;;5033983;28;20279;-72
2024/02/28 08:12:13;;;;;;;166.23;151.87;;;3.20;99.90;;;;;;5033684;28;20674;-71
2024/02/28 08:14:38;;;;;;;162.23;148.93;;;3.20;99.90;;;;;;5033986;28;20679;-72
2024/02/28 08:17:04;;;;;;;410.17;386.37;;;3.30;99.90;;;;;;5033985;28;20160;-72
2024/02/28 08:19:30;;;;;;;231.07;214.23;;;;;;;;;;5033999;28;20187;-72
2024/02/28 08:21:56;;;;;;;163.77;150.00;;;3.30;99.90;;;;;;5033078;28;20199;-72
2024/02/28 08:24:21;;;;;;;164.27;150.20;;;3.40;99.90;;;;;;5033773;28;20930;-71
2024/02/28 08:26:47;;;;;;;593.17;555.83;;;3.30;99.90;;;;;;5033822;28;20192;-72
2024/02/28 08:29:12;;;;;;;147.07;133.87;;;3.30;99.90;;;;;;5033846;28;21009;-71
2024/02/28 08:31:43;;;;;;;270.73;252.60;;;3.30;99.90;;;;;;5033389;28;20208;-71
2024/02/28 08:34:09;;;;;;;146.98;133.95;;;3.40;99.90;;;;;;5033673;28;20195;-71
2024/02/28 08:36:35;;;;;;;159.97;146.37;;;3.40;99.90;;;;;;5033650;28;20644;-72
2024/02/28 08:39:01;;;;;;;194.20;178.93;;;3.40;99.90;;;;;;5033453;28;20452;-71
2024/02/28 08:41:27;;;;;;;600.90;564.47;;;3.50;99.90;;;;;;5033342;28;20168;-72
2024/02/28 08:43:52;;;;;;;169.97;154.87;;;3.60;99.90;;;;;;5033374;28;20933;-72
2024/02/28 08:46:18;;;;;;;193.53;178.00;;;3.70;99.90;;;;;;5033411;28;20168;-71
2024/02/28 08:48:43;;;;;;;218.23;201.63;;;3.90;99.90;;;;;;5033425;28;20204;-71
2024/02/28 08:51:09;;;;;;;196.93;180.57;;;4.00;99.90;;;;;;5033168;28;20207;-72
2024/02/28 08:53:35;;;;;;;191.47;175.60;;;4.00;99.90;;;;;;5033050;28;20172;-71
2024/02/28 08:56:00;;;;;;;191.43;175.70;;;4.10;99.90;;;;;;5033159;28;20168;-72
2024/02/28 08:58:26;;;;;;;568.67;535.33;;;4.20;99.90;;;;;;5033360;28;20255;-69
2024/02/28 09:00:51;;;;;;;196.97;181.30;;;4.20;99.90;;;;;;5033075;28;20196;-69
2024/02/28 09:03:19;;;;;;;224.10;206.73;;;;;;;;;;5032877;28;20165;-70
2024/02/28 09:05:45;;;;;;;212.70;195.53;;;4.50;99.90;;;;;;5033074;28;20636;-70
2024/02/28 09:08:10;;;;;;;259.13;240.37;;;4.30;99.90;;;;;;5032908;28;20430;-70
2024/02/28 09:10:36;;;;;;;263.50;245.77;;;4.60;99.90;;;;;;5032744;28;20200;-71
2024/02/28 09:13:01;;;;;;;211.87;195.83;;;4.70;99.90;;;;;;5032835;28;20168;-70
2024/02/28 09:15:27;;;;;;;216.37;199.90;;;4.80;99.90;;;;;;5032968;28;20169;-70
2024/02/28 09:17:52;;;;;;;237.03;219.77;;;4.80;99.90;;;;;;5032868;28;20244;-70
2024/02/28 09:20:18;;;;;;;644.40;606.70;;;4.80;99.90;;;;;;5032782;28;20188;-71
2024/02/28 09:22:44;;;;;;;227.73;210.70;;;4.90;99.90;;;;;;5032455;28;20219;-70
2024/02/28 09:25:09;;;;;;;256.10;239.03;;;5.00;99.90;;;;;;5032566;28;20251;-69
2024/02/28 09:27:36;;;;;;;336.50;315.47;;;5.20;99.90;;;;;;5032445;28;20843;-70
2024/02/28 09:30:02;;;;;;;278.07;258.80;;;5.20;99.90;;;;;;5032396;28;20188;-69
2024/02/28 09:32:28;;;;;;;320.03;299.70;;;5.30;99.90;;;;;;5032224;28;20437;-70
2024/02/28 09:34:54;;;;;;;353.17;332.00;;;;;;;;;;5031698;28;20946;-70
2024/02/28 09:37:24;;;;;;;377.53;353.60;;;5.40;99.90;;;;;;5032373;28;20209;-70
2024/02/28 09:39:50;;;;;;;323.20;303.13;;;6.80;99.90;;;;;;5032257;28;20426;-69
2024/02/28 09:42:15;;;;;;;353.80;332.23;;;5.70;99.90;;;;;;5032113;28;20414;-69
2024/02/28 09:44:43;;;;;;;457.80;430.13;;;5.80;99.90;;;;;;5032475;28;20180;-70
2024/02/28 09:47:08;;;;;;;373.50;350.13;;;5.80;99.90;;;;;;5032333;28;20655;-70
2024/02/28 09:49:37;;;;;;;665.03;626.50;;;6.00;99.90;;;;;;5032132;28;20533;-70
2024/02/28 09:52:04;;;;;;;411.83;387.87;;;6.20;99.90;;;;;;5031803;28;20703;-72
2024/02/28 09:54:29;;;;;;;722.63;679.20;;;6.20;99.90;;;;;;5032363;28;20464;-70
2024/02/28 09:56:55;;;;;;;501.77;472.70;;;6.40;99.90;;;;;;5032120;28;20407;-70
2024/02/28 09:59:24;;;;;;;403.90;379.87;;;6.40;99.90;;;;;;5031947;28;20275;-70
2024/02/28 10:02:01;;;;;;;495.10;468.13;;;6.50;99.90;;;;;;5032117;28;20848;-70
2024/02/28 10:04:29;;;;;;;422.77;399.63;;;6.80;99.90;;;;;;5032099;28;20406;-70
2024/02/28 10:06:56;;;;;;;401.70;379.03;;;6.80;99.90;;;;;;5031831;28;20435;-70
2024/02/28 10:09:22;;;;;;;468.53;442.67;;;6.90;99.90;;;;;;5031954;28;20488;-69
2024/02/28 10:11:48;;;;;;;641.03;604.87;;;6.90;99.90;;;;;;5031791;28;20451;-70
2024/02/28 10:14:18;;;;;;;444.90;421.10;;;7.20;99.90;;;;;;5031926;28;20161;-70
2024/02/28 10:16:44;;;;;;;435.53;411.40;;;7.10;99.90;;;;;;5031926;28;20721;-69
2024/02/28 10:19:10;;;;;;;433.90;410.30;;;7.40;99.90;;;;;;5031677;28;20407;-70
2024/02/28 10:21:35;;;;;;;425.60;402.83;;;7.20;87.10;;;;;;5031548;28;20180;-70
2024/02/28 10:24:01;;;;;;;405.03;382.30;;;7.20;82.80;;;;;;5031772;28;20252;-69
2024/02/28 10:26:29;;;;;;;424.83;400.60;;;;;;;;;;5031774;28;20644;-70
2024/02/28 10:28:55;;;;;;;402.17;379.17;;;7.40;93.40;;;;;;5031667;28;20446;-69
2024/02/28 10:31:21;;;;;;;483.20;456.37;;;7.40;82.30;;;;;;5031694;28;20478;-70
2024/02/28 10:33:47;;;;;;;459.30;434.30;;;7.40;91.70;;;;;;5031653;28;20223;-72
2024/02/28 10:36:12;;;;;;;498.40;470.90;;;7.60;92.90;;;;;;5031610;28;20419;-71
2024/02/28 10:38:38;;;;;;;480.07;454.23;;;7.70;93.10;;;;;;5031680;28;20193;-72
2024/02/28 10:41:04;;;;;;;516.83;489.27;;;7.90;83.60;;;;;;5031670;28;20188;-71
2024/02/28 10:43:30;;;;;;;577.83;547.37;;;7.90;77.90;;;;;;5031477;28;20260;-70
2024/02/28 10:45:59;;;;;;;558.13;528.30;;;8.10;65.10;;;;;;5033434;28;20695;-71
2024/02/28 10:48:28;;;;;;;618.87;585.57;;;8.20;71.50;;;;;;5035512;28;20441;-72
2024/02/28 10:50:56;;;;;;;922.93;865.63;;;8.50;70.90;;;;;;5035211;28;20517;-72
2024/02/28 10:53:32;;;;;;;776.20;729.33;;;8.50;59.30;;;;;;5035220;28;20411;-72
2024/02/28 10:56:03;;;;;;;635.70;602.10;;;8.70;58.30;;;;;;5035460;28;20400;-72
2024/02/28 10:58:37;;;;;;;652.90;617.10;;;8.80;56.60;;;;;;5035462;28;20404;-72
2024/02/28 11:01:03;;;;;;;668.03;630.50;;;9.00;52.00;;;;;;5035754;28;20517;-72
2024/02/28 11:03:30;;;;;;;697.87;659.47;;;9.10;49.10;;;;;;5035108;28;20553;-71
2024/02/28 11:05:56;;;;;;;610.50;577.77;;;9.30;46.40;;;;;;5035283;28;20958;-72
2024/02/28 11:08:27;;;;;;;670.50;634.43;;;9.30;39.90;;;;;;5035383;28;20405;-72
2024/02/28 11:10:57;;;;;;;678.50;640.03;;;9.00;37.80;;;;;;5035129;28;20509;-72
2024/02/28 11:13:27;;;;;;;699.97;661.50;;;9.20;43.50;;;;;;5034851;28;20839;-72
2024/02/28 11:15:55;;;;;;;658.57;622.67;;;9.50;40.60;;;;;;5035018;28;20405;-71
2024/02/28 11:18:21;;;;;;;731.03;689.63;;;9.70;36.90;;;;;;5035101;28;20405;-72
2024/02/28 11:20:48;;;;;;;700.67;661.73;;;9.90;33.00;;;;;;5034875;28;20448;-71
2024/02/28 11:23:14;;;;;;;721.77;682.37;;;9.90;33.70;;;;;;5034727;28;20416;-72
2024/02/28 11:25:40;;;;;;;729.23;689.53;;;10.20;28.20;;;;;;5034834;28;20459;-72
2024/02/28 11:28:06;;;;;;;688.37;651.03;;;10.30;26.90;;;;;;5034798;28;20188;-71
2024/02/28 11:30:33;;;;;;;649.60;615.03;;;10.50;23.80;;;;;;5034669;28;20461;-72
2024/02/28 11:32:58;;;;;;;626.07;593.63;;;10.50;21.10;;;;;;5034459;28;20409;-70
2024/02/28 11:35:28;;;;;;;522.43;494.80;;;10.40;16.20;;;;;;5034885;28;20454;-72
2024/02/28 11:37:59;;;;;;;547.03;519.10;;;10.40;15.30;;;;;;5034714;28;20818;-72
2024/02/28 11:40:25;;;;;;;847.30;795.80;;;10.40;19.70;;;;;;5034521;28;20459;-71
2024/02/28 11:42:52;;;;;;;642.27;608.63;;;10.50;20.40;;;;;;5034274;28;21267;-72
2024/02/28 11:45:18;;;;;;;717.90;679.80;;;10.60;18.00;;;;;;5034587;28;20512;-72
2024/02/28 11:47:44;;;;;;;762.37;718.77;;;10.80;18.70;;;;;;5034568;28;20445;-72
2024/02/28 11:50:10;;;;;;;759.83;717.33;;;11.30;16.30;;;;;;5034157;28;20253;-72
2024/02/28 11:52:35;;;;;;;499.20;474.07;;;11.80;16.00;;;;;;5034216;28;20415;-72
2024/02/28 11:55:02;;;;;;;522.93;495.23;;;12.30;7.20;;;;;;5034401;28;20175;-72
2024/02/28 11:57:29;;;;;;;389.73;367.67;;;12.70;5.80;;;;;;5033184;28;20165;-72
2024/02/28 11:59:55;;;;;;;280.23;262.60;;;13.20;1.00;;;;;;5034056;28;20427;-72
2024/02/28 12:02:26;;;;;;;282.03;264.87;;;13.50;1.00;;;;;;5033518;28;20422;-72
2024/02/28 12:04:54;;;;;;;243.73;227.93;;;14.10;1.00;;;;;;5031315;28;20996;-69
2024/02/28 12:07:20;;;;;;;347.90;327.43;;;14.50;1.00;;;;;;5045307;28;20419;-73
2024/02/28 12:09:48;;;;;;;91.40;64.97;;;14.90;1.00;;;;;;5053644;28;20496;-73
2024/02/28 12:12:14;;;;;;;101.20;84.57;;;15.80;1.00;;;;;;5053148;28;20684;-71
2024/02/28 12:14:40;;;;;;;114.30;100.60;;;15.80;1.00;;;;;;5053769;28;20415;-74